Terminal Aerodrome Forecast
Issued by NWS Binghamton, NY

Home | Current Version | Previous Version | Text Only | Print | Product List | Glossary On
Versions: 1 2 3 4 5 6 7 8 9 10 11 12 13 14 15 16 17 18 19 20
000
FTUS41 KBGM 031948 AAA
TAFAVP
TAF AMD
KAVP 031948Z 0320/0418 VRB02KT 2SM BR BKN009
     FM040300 16003KT 5SM BR BKN014 OVC050
     FM040700 VRB04KT 2SM -DZ BR OVC013
      TEMPO 0409/0413 4SM -RA BR OVC009
     FM041300 15005KT 6SM -RA BR OVC017=

USA.gov is the U.S. government's official web portal to all federal, state and local government web resources and services.